sensor_id;sensor_type;location;lat;lon;timestamp;P1;durP1;ratioP1;P2;durP2;ratioP2
72205;SDS011;60111;48.286;7.812;2022-08-19T00:01:59;17.55;;;14.87;;
72205;SDS011;60111;48.286;7.812;2022-08-19T00:04:33;20.43;;;16.50;;
72205;SDS011;60111;48.286;7.812;2022-08-19T00:07:07;26.52;;;17.40;;
72205;SDS011;60111;48.286;7.812;2022-08-19T00:09:39;17.77;;;14.68;;
72205;SDS011;60111;48.286;7.812;2022-08-19T00:12:12;20.45;;;16.57;;
72205;SDS011;60111;48.286;7.812;2022-08-19T00:14:46;21.10;;;15.85;;
72205;SDS011;60111;48.286;7.812;2022-08-19T00:17:18;18.65;;;14.90;;
72205;SDS011;60111;48.286;7.812;2022-08-19T00:19:51;22.07;;;15.88;;
72205;SDS011;60111;48.286;7.812;2022-08-19T00:22:24;20.32;;;16.67;;
72205;SDS011;60111;48.286;7.812;2022-08-19T00:24:58;19.33;;;15.33;;
72205;SDS011;60111;48.286;7.812;2022-08-19T00:27:31;16.35;;;13.75;;
72205;SDS011;60111;48.286;7.812;2022-08-19T00:30:04;18.10;;;13.58;;
72205;SDS011;60111;48.286;7.812;2022-08-19T00:32:38;25.82;;;20.05;;
72205;SDS011;60111;48.286;7.812;2022-08-19T00:35:11;21.37;;;14.80;;
72205;SDS011;60111;48.286;7.812;2022-08-19T00:37:44;25.70;;;17.27;;
72205;SDS011;60111;48.286;7.812;2022-08-19T00:40:17;20.35;;;17.73;;
72205;SDS011;60111;48.286;7.812;2022-08-19T00:42:50;19.65;;;16.30;;
72205;SDS011;60111;48.286;7.812;2022-08-19T00:45:25;25.52;;;19.48;;
72205;SDS011;60111;48.286;7.812;2022-08-19T00:48:01;22.30;;;19.53;;
72205;SDS011;60111;48.286;7.812;2022-08-19T00:50:38;24.30;;;19.90;;
72205;SDS011;60111;48.286;7.812;2022-08-19T00:53:14;27.20;;;22.42;;
72205;SDS011;60111;48.286;7.812;2022-08-19T00:55:50;21.23;;;18.85;;
72205;SDS011;60111;48.286;7.812;2022-08-19T00:58:27;21.07;;;18.65;;
72205;SDS011;60111;48.286;7.812;2022-08-19T01:01:02;22.58;;;16.62;;
72205;SDS011;60111;48.286;7.812;2022-08-19T01:03:35;20.30;;;16.60;;
72205;SDS011;60111;48.286;7.812;2022-08-19T01:06:08;18.75;;;14.38;;
72205;SDS011;60111;48.286;7.812;2022-08-19T01:08:40;16.07;;;14.37;;
72205;SDS011;60111;48.286;7.812;2022-08-19T01:11:13;19.47;;;15.20;;
72205;SDS011;60111;48.286;7.812;2022-08-19T01:13:46;20.00;;;14.50;;
72205;SDS011;60111;48.286;7.812;2022-08-19T01:16:20;18.53;;;15.67;;
72205;SDS011;60111;48.286;7.812;2022-08-19T01:18:55;15.35;;;13.75;;
72205;SDS011;60111;48.286;7.812;2022-08-19T01:21:42;15.80;;;13.48;;
72205;SDS011;60111;48.286;7.812;2022-08-19T01:24:15;18.40;;;14.03;;
72205;SDS011;60111;48.286;7.812;2022-08-19T01:26:48;13.83;;;11.97;;
72205;SDS011;60111;48.286;7.812;2022-08-19T01:29:21;17.50;;;14.60;;
72205;SDS011;60111;48.286;7.812;2022-08-19T01:31:54;18.00;;;13.35;;
72205;SDS011;60111;48.286;7.812;2022-08-19T01:34:26;15.25;;;12.93;;
72205;SDS011;60111;48.286;7.812;2022-08-19T01:36:59;15.63;;;12.47;;
72205;SDS011;60111;48.286;7.812;2022-08-19T01:39:34;16.75;;;13.03;;
72205;SDS011;60111;48.286;7.812;2022-08-19T01:42:07;15.85;;;12.82;;
72205;SDS011;60111;48.286;7.812;2022-08-19T01:44:41;20.17;;;13.68;;
72205;SDS011;60111;48.286;7.812;2022-08-19T01:47:14;18.80;;;12.90;;
72205;SDS011;60111;48.286;7.812;2022-08-19T01:49:47;16.30;;;14.07;;
72205;SDS011;60111;48.286;7.812;2022-08-19T01:52:20;15.63;;;11.50;;
72205;SDS011;60111;48.286;7.812;2022-08-19T01:54:53;15.00;;;12.20;;
72205;SDS011;60111;48.286;7.812;2022-08-19T01:57:26;15.45;;;13.72;;
72205;SDS011;60111;48.286;7.812;2022-08-19T01:59:58;14.93;;;12.90;;
72205;SDS011;60111;48.286;7.812;2022-08-19T02:05:05;18.98;;;13.83;;
72205;SDS011;60111;48.286;7.812;2022-08-19T02:10:12;13.83;;;12.25;;
72205;SDS011;60111;48.286;7.812;2022-08-19T02:12:47;12.80;;;11.40;;
72205;SDS011;60111;48.286;7.812;2022-08-19T02:15:20;16.12;;;13.32;;
72205;SDS011;60111;48.286;7.812;2022-08-19T02:17:53;12.28;;;11.08;;
72205;SDS011;60111;48.286;7.812;2022-08-19T02:20:25;13.00;;;11.70;;
72205;SDS011;60111;48.286;7.812;2022-08-19T02:22:58;17.00;;;13.23;;
72205;SDS011;60111;48.286;7.812;2022-08-19T02:25:32;15.20;;;12.58;;
72205;SDS011;60111;48.286;7.812;2022-08-19T02:28:05;15.65;;;12.30;;
72205;SDS011;60111;48.286;7.812;2022-08-19T02:30:38;16.87;;;12.40;;
72205;SDS011;60111;48.286;7.812;2022-08-19T02:33:12;15.20;;;13.60;;
72205;SDS011;60111;48.286;7.812;2022-08-19T02:35:45;12.97;;;11.60;;
72205;SDS011;60111;48.286;7.812;2022-08-19T02:38:19;21.02;;;13.10;;
72205;SDS011;60111;48.286;7.812;2022-08-19T02:40:58;14.07;;;12.47;;
72205;SDS011;60111;48.286;7.812;2022-08-19T02:43:33;13.50;;;10.60;;
72205;SDS011;60111;48.286;7.812;2022-08-19T02:46:21;12.47;;;10.15;;
72205;SDS011;60111;48.286;7.812;2022-08-19T02:48:57;12.18;;;10.68;;
72205;SDS011;60111;48.286;7.812;2022-08-19T02:51:32;17.30;;;11.40;;
72205;SDS011;60111;48.286;7.812;2022-08-19T02:54:10;12.15;;;10.98;;
72205;SDS011;60111;48.286;7.812;2022-08-19T02:56:44;11.90;;;10.65;;
72205;SDS011;60111;48.286;7.812;2022-08-19T02:59:17;15.10;;;10.43;;
72205;SDS011;60111;48.286;7.812;2022-08-19T03:01:49;13.80;;;12.40;;
72205;SDS011;60111;48.286;7.812;2022-08-19T03:04:22;12.30;;;10.75;;
72205;SDS011;60111;48.286;7.812;2022-08-19T03:06:55;12.93;;;11.38;;
72205;SDS011;60111;48.286;7.812;2022-08-19T03:09:28;13.80;;;11.10;;
72205;SDS011;60111;48.286;7.812;2022-08-19T03:12:01;15.23;;;13.38;;
72205;SDS011;60111;48.286;7.812;2022-08-19T03:17:08;11.83;;;10.13;;
72205;SDS011;60111;48.286;7.812;2022-08-19T03:19:40;11.70;;;10.50;;
72205;SDS011;60111;48.286;7.812;2022-08-19T03:22:14;12.43;;;10.50;;
72205;SDS011;60111;48.286;7.812;2022-08-19T03:24:46;17.75;;;12.80;;
72205;SDS011;60111;48.286;7.812;2022-08-19T03:27:19;16.97;;;13.38;;
72205;SDS011;60111;48.286;7.812;2022-08-19T03:29:52;18.94;;;14.76;;
72205;SDS011;60111;48.286;7.812;2022-08-19T03:32:25;15.65;;;13.98;;
72205;SDS011;60111;48.286;7.812;2022-08-19T03:34:58;17.32;;;14.47;;
72205;SDS011;60111;48.286;7.812;2022-08-19T03:37:31;20.50;;;17.42;;
72205;SDS011;60111;48.286;7.812;2022-08-19T03:40:04;27.58;;;19.02;;
72205;SDS011;60111;48.286;7.812;2022-08-19T03:42:37;23.03;;;15.67;;
72205;SDS011;60111;48.286;7.812;2022-08-19T03:45:12;16.30;;;14.40;;
72205;SDS011;60111;48.286;7.812;2022-08-19T03:47:44;15.47;;;13.83;;
72205;SDS011;60111;48.286;7.812;2022-08-19T03:50:17;15.35;;;13.60;;
72205;SDS011;60111;48.286;7.812;2022-08-19T03:52:50;21.55;;;15.45;;
72205;SDS011;60111;48.286;7.812;2022-08-19T03:55:23;17.37;;;14.90;;
72205;SDS011;60111;48.286;7.812;2022-08-19T03:57:56;17.75;;;15.85;;
72205;SDS011;60111;48.286;7.812;2022-08-19T04:00:29;20.20;;;17.27;;
72205;SDS011;60111;48.286;7.812;2022-08-19T04:03:01;18.90;;;15.35;;
72205;SDS011;60111;48.286;7.812;2022-08-19T04:05:34;19.83;;;15.20;;
72205;SDS011;60111;48.286;7.812;2022-08-19T04:08:08;20.97;;;18.07;;
72205;SDS011;60111;48.286;7.812;2022-08-19T04:10:43;21.05;;;17.42;;
72205;SDS011;60111;48.286;7.812;2022-08-19T04:13:16;24.27;;;20.02;;
72205;SDS011;60111;48.286;7.812;2022-08-19T04:15:49;23.33;;;17.27;;
72205;SDS011;60111;48.286;7.812;2022-08-19T04:18:23;18.23;;;15.83;;
72205;SDS011;60111;48.286;7.812;2022-08-19T04:20:56;23.92;;;17.27;;
72205;SDS011;60111;48.286;7.812;2022-08-19T04:23:29;19.82;;;17.35;;
72205;SDS011;60111;48.286;7.812;2022-08-19T04:26:02;23.70;;;18.05;;
72205;SDS011;60111;48.286;7.812;2022-08-19T04:28:35;19.07;;;15.85;;
72205;SDS011;60111;48.286;7.812;2022-08-19T04:31:12;20.57;;;15.93;;
72205;SDS011;60111;48.286;7.812;2022-08-19T04:33:48;16.85;;;14.63;;
72205;SDS011;60111;48.286;7.812;2022-08-19T04:36:22;20.37;;;17.42;;
72205;SDS011;60111;48.286;7.812;2022-08-19T04:38:57;19.07;;;15.60;;
72205;SDS011;60111;48.286;7.812;2022-08-19T04:41:32;21.15;;;16.45;;
72205;SDS011;60111;48.286;7.812;2022-08-19T04:44:23;17.57;;;15.58;;
72205;SDS011;60111;48.286;7.812;2022-08-19T04:46:56;19.32;;;17.15;;
72205;SDS011;60111;48.286;7.812;2022-08-19T04:49:29;19.45;;;16.67;;
72205;SDS011;60111;48.286;7.812;2022-08-19T04:52:02;21.80;;;18.12;;
72205;SDS011;60111;48.286;7.812;2022-08-19T04:54:35;21.17;;;16.80;;
72205;SDS011;60111;48.286;7.812;2022-08-19T04:57:08;19.73;;;16.65;;
72205;SDS011;60111;48.286;7.812;2022-08-19T04:59:41;45.38;;;33.10;;
72205;SDS011;60111;48.286;7.812;2022-08-19T05:02:14;42.65;;;23.87;;
72205;SDS011;60111;48.286;7.812;2022-08-19T05:04:46;25.35;;;19.35;;
72205;SDS011;60111;48.286;7.812;2022-08-19T05:07:19;22.55;;;18.35;;
72205;SDS011;60111;48.286;7.812;2022-08-19T05:09:52;22.73;;;18.33;;
72205;SDS011;60111;48.286;7.812;2022-08-19T05:12:26;19.63;;;17.47;;
72205;SDS011;60111;48.286;7.812;2022-08-19T05:14:59;21.43;;;17.23;;
72205;SDS011;60111;48.286;7.812;2022-08-19T05:17:33;20.68;;;17.12;;
72205;SDS011;60111;48.286;7.812;2022-08-19T05:20:07;23.53;;;19.47;;
72205;SDS011;60111;48.286;7.812;2022-08-19T05:22:58;22.95;;;18.80;;
72205;SDS011;60111;48.286;7.812;2022-08-19T05:25:32;26.80;;;19.63;;
72205;SDS011;60111;48.286;7.812;2022-08-19T05:28:04;20.83;;;17.00;;
72205;SDS011;60111;48.286;7.812;2022-08-19T05:30:37;21.33;;;17.00;;
72205;SDS011;60111;48.286;7.812;2022-08-19T05:33:11;21.35;;;16.12;;
72205;SDS011;60111;48.286;7.812;2022-08-19T05:35:44;20.10;;;16.00;;
72205;SDS011;60111;48.286;7.812;2022-08-19T05:38:19;18.70;;;15.37;;
72205;SDS011;60111;48.286;7.812;2022-08-19T05:40:53;18.87;;;15.40;;
72205;SDS011;60111;48.286;7.812;2022-08-19T05:43:25;17.73;;;15.83;;
72205;SDS011;60111;48.286;7.812;2022-08-19T05:45:58;20.43;;;15.43;;
72205;SDS011;60111;48.286;7.812;2022-08-19T05:48:30;19.45;;;16.73;;
72205;SDS011;60111;48.286;7.812;2022-08-19T05:51:04;19.95;;;16.23;;
72205;SDS011;60111;48.286;7.812;2022-08-19T05:53:39;18.40;;;16.23;;
72205;SDS011;60111;48.286;7.812;2022-08-19T05:56:12;19.32;;;15.45;;
72205;SDS011;60111;48.286;7.812;2022-08-19T05:58:46;18.85;;;15.23;;
72205;SDS011;60111;48.286;7.812;2022-08-19T06:01:23;23.55;;;17.87;;
72205;SDS011;60111;48.286;7.812;2022-08-19T06:03:56;20.53;;;16.07;;
72205;SDS011;60111;48.286;7.812;2022-08-19T06:06:30;19.13;;;16.80;;
72205;SDS011;60111;48.286;7.812;2022-08-19T06:09:05;24.85;;;18.48;;
72205;SDS011;60111;48.286;7.812;2022-08-19T06:11:46;16.15;;;14.35;;
72205;SDS011;60111;48.286;7.812;2022-08-19T06:14:29;18.48;;;15.23;;
72205;SDS011;60111;48.286;7.812;2022-08-19T06:17:05;21.87;;;16.37;;
72205;SDS011;60111;48.286;7.812;2022-08-19T06:19:37;21.12;;;18.73;;
72205;SDS011;60111;48.286;7.812;2022-08-19T06:22:11;22.20;;;17.60;;
72205;SDS011;60111;48.286;7.812;2022-08-19T06:24:44;18.42;;;14.95;;
72205;SDS011;60111;48.286;7.812;2022-08-19T06:27:16;20.52;;;16.97;;
72205;SDS011;60111;48.286;7.812;2022-08-19T06:29:49;19.12;;;16.42;;
72205;SDS011;60111;48.286;7.812;2022-08-19T06:32:23;22.42;;;18.42;;
72205;SDS011;60111;48.286;7.812;2022-08-19T06:34:56;18.52;;;16.55;;
72205;SDS011;60111;48.286;7.812;2022-08-19T06:37:28;20.58;;;17.22;;
72205;SDS011;60111;48.286;7.812;2022-08-19T06:40:01;18.35;;;15.25;;
72205;SDS011;60111;48.286;7.812;2022-08-19T06:42:36;20.07;;;16.67;;
72205;SDS011;60111;48.286;7.812;2022-08-19T06:45:09;24.20;;;17.92;;
72205;SDS011;60111;48.286;7.812;2022-08-19T06:47:42;20.17;;;16.80;;
72205;SDS011;60111;48.286;7.812;2022-08-19T06:50:19;22.52;;;18.12;;
72205;SDS011;60111;48.286;7.812;2022-08-19T06:52:55;16.40;;;14.70;;
72205;SDS011;60111;48.286;7.812;2022-08-19T06:55:27;17.00;;;15.18;;
72205;SDS011;60111;48.286;7.812;2022-08-19T06:58:02;18.43;;;15.37;;
72205;SDS011;60111;48.286;7.812;2022-08-19T07:00:35;20.68;;;17.02;;
72205;SDS011;60111;48.286;7.812;2022-08-19T07:03:08;19.07;;;16.23;;
72205;SDS011;60111;48.286;7.812;2022-08-19T07:05:41;19.98;;;17.15;;
72205;SDS011;60111;48.286;7.812;2022-08-19T07:08:15;17.10;;;14.25;;
72205;SDS011;60111;48.286;7.812;2022-08-19T07:10:48;19.62;;;15.95;;
72205;SDS011;60111;48.286;7.812;2022-08-19T07:13:20;16.80;;;14.85;;
72205;SDS011;60111;48.286;7.812;2022-08-19T07:15:53;19.60;;;16.40;;
72205;SDS011;60111;48.286;7.812;2022-08-19T07:18:26;19.62;;;15.93;;
72205;SDS011;60111;48.286;7.812;2022-08-19T07:21:06;19.35;;;15.03;;
72205;SDS011;60111;48.286;7.812;2022-08-19T07:23:40;22.37;;;17.90;;
72205;SDS011;60111;48.286;7.812;2022-08-19T07:26:15;16.93;;;15.13;;
72205;SDS011;60111;48.286;7.812;2022-08-19T07:28:52;16.85;;;15.08;;
72205;SDS011;60111;48.286;7.812;2022-08-19T07:31:25;17.75;;;14.98;;
72205;SDS011;60111;48.286;7.812;2022-08-19T07:33:59;21.77;;;16.60;;
72205;SDS011;60111;48.286;7.812;2022-08-19T07:36:32;20.43;;;16.40;;
72205;SDS011;60111;48.286;7.812;2022-08-19T07:39:08;20.35;;;17.62;;
72205;SDS011;60111;48.286;7.812;2022-08-19T07:41:42;19.00;;;14.83;;
72205;SDS011;60111;48.286;7.812;2022-08-19T07:44:15;19.95;;;16.42;;
72205;SDS011;60111;48.286;7.812;2022-08-19T07:46:52;20.17;;;17.62;;
72205;SDS011;60111;48.286;7.812;2022-08-19T07:49:23;20.08;;;16.20;;
72205;SDS011;60111;48.286;7.812;2022-08-19T07:52:03;15.43;;;13.80;;
72205;SDS011;60111;48.286;7.812;2022-08-19T07:54:33;17.35;;;15.48;;
72205;SDS011;60111;48.286;7.812;2022-08-19T07:57:07;25.08;;;20.35;;
72205;SDS011;60111;48.286;7.812;2022-08-19T07:59:40;27.40;;;20.67;;
72205;SDS011;60111;48.286;7.812;2022-08-19T08:02:13;22.63;;;18.37;;
72205;SDS011;60111;48.286;7.812;2022-08-19T08:04:46;20.85;;;18.30;;
72205;SDS011;60111;48.286;7.812;2022-08-19T08:07:36;19.97;;;17.13;;
72205;SDS011;60111;48.286;7.812;2022-08-19T08:10:27;18.80;;;16.70;;
72205;SDS011;60111;48.286;7.812;2022-08-19T08:12:59;27.83;;;19.53;;
72205;SDS011;60111;48.286;7.812;2022-08-19T08:15:32;20.62;;;16.80;;
72205;SDS011;60111;48.286;7.812;2022-08-19T08:18:04;27.55;;;20.05;;
72205;SDS011;60111;48.286;7.812;2022-08-19T08:20:37;26.03;;;20.03;;
72205;SDS011;60111;48.286;7.812;2022-08-19T08:23:10;24.00;;;19.27;;
72205;SDS011;60111;48.286;7.812;2022-08-19T08:26:00;22.07;;;18.60;;
72205;SDS011;60111;48.286;7.812;2022-08-19T08:28:33;25.10;;;19.57;;
72205;SDS011;60111;48.286;7.812;2022-08-19T08:31:06;18.20;;;15.03;;
72205;SDS011;60111;48.286;7.812;2022-08-19T08:33:40;18.98;;;15.10;;
72205;SDS011;60111;48.286;7.812;2022-08-19T08:36:13;21.90;;;16.37;;
72205;SDS011;60111;48.286;7.812;2022-08-19T08:38:46;17.67;;;15.83;;
72205;SDS011;60111;48.286;7.812;2022-08-19T08:41:31;19.67;;;17.35;;
72205;SDS011;60111;48.286;7.812;2022-08-19T08:44:04;23.38;;;19.90;;
72205;SDS011;60111;48.286;7.812;2022-08-19T08:46:37;19.32;;;15.93;;
72205;SDS011;60111;48.286;7.812;2022-08-19T08:49:23;19.92;;;17.42;;
72205;SDS011;60111;48.286;7.812;2022-08-19T08:52:06;26.53;;;19.10;;
72205;SDS011;60111;48.286;7.812;2022-08-19T08:54:41;20.08;;;17.12;;
72205;SDS011;60111;48.286;7.812;2022-08-19T08:57:17;21.87;;;15.10;;
72205;SDS011;60111;48.286;7.812;2022-08-19T08:59:50;25.97;;;20.20;;
72205;SDS011;60111;48.286;7.812;2022-08-19T09:02:25;25.20;;;19.20;;
72205;SDS011;60111;48.286;7.812;2022-08-19T09:04:58;24.80;;;20.35;;
72205;SDS011;60111;48.286;7.812;2022-08-19T09:15:52;21.68;;;16.73;;
72205;SDS011;60111;48.286;7.812;2022-08-19T09:18:25;22.02;;;17.12;;
72205;SDS011;60111;48.286;7.812;2022-08-19T09:20:59;24.63;;;20.52;;
72205;SDS011;60111;48.286;7.812;2022-08-19T09:23:32;23.50;;;18.83;;
72205;SDS011;60111;48.286;7.812;2022-08-19T09:26:09;22.15;;;19.73;;
72205;SDS011;60111;48.286;7.812;2022-08-19T09:28:47;19.20;;;17.15;;
72205;SDS011;60111;48.286;7.812;2022-08-19T09:31:23;22.67;;;19.50;;
72205;SDS011;60111;48.286;7.812;2022-08-19T09:33:57;21.50;;;16.75;;
72205;SDS011;60111;48.286;7.812;2022-08-19T09:36:32;27.73;;;20.45;;
72205;SDS011;60111;48.286;7.812;2022-08-19T09:39:07;18.42;;;16.45;;
72205;SDS011;60111;48.286;7.812;2022-08-19T09:41:39;20.65;;;16.65;;
72205;SDS011;60111;48.286;7.812;2022-08-19T09:44:12;23.47;;;19.40;;
72205;SDS011;60111;48.286;7.812;2022-08-19T09:46:45;22.35;;;19.77;;
72205;SDS011;60111;48.286;7.812;2022-08-19T09:49:18;19.20;;;15.68;;
72205;SDS011;60111;48.286;7.812;2022-08-19T09:51:53;26.40;;;17.60;;
72205;SDS011;60111;48.286;7.812;2022-08-19T09:54:26;24.17;;;19.63;;
72205;SDS011;60111;48.286;7.812;2022-08-19T09:56:59;21.93;;;18.07;;
72205;SDS011;60111;48.286;7.812;2022-08-19T09:59:32;20.45;;;17.60;;
72205;SDS011;60111;48.286;7.812;2022-08-19T10:02:05;22.67;;;17.82;;
72205;SDS011;60111;48.286;7.812;2022-08-19T10:04:38;24.07;;;19.55;;
72205;SDS011;60111;48.286;7.812;2022-08-19T10:07:29;23.40;;;17.07;;
72205;SDS011;60111;48.286;7.812;2022-08-19T10:10:05;18.77;;;15.58;;
72205;SDS011;60111;48.286;7.812;2022-08-19T10:12:40;27.42;;;20.27;;
72205;SDS011;60111;48.286;7.812;2022-08-19T10:15:13;24.10;;;18.60;;
72205;SDS011;60111;48.286;7.812;2022-08-19T10:17:46;20.17;;;17.25;;
72205;SDS011;60111;48.286;7.812;2022-08-19T10:20:19;24.92;;;20.80;;
72205;SDS011;60111;48.286;7.812;2022-08-19T10:22:52;19.87;;;17.82;;
72205;SDS011;60111;48.286;7.812;2022-08-19T10:25:25;28.85;;;21.37;;
72205;SDS011;60111;48.286;7.812;2022-08-19T10:27:57;27.67;;;20.07;;
72205;SDS011;60111;48.286;7.812;2022-08-19T10:30:30;26.37;;;19.90;;
72205;SDS011;60111;48.286;7.812;2022-08-19T10:33:03;21.20;;;16.75;;
72205;SDS011;60111;48.286;7.812;2022-08-19T10:35:36;20.10;;;15.18;;
72205;SDS011;60111;48.286;7.812;2022-08-19T10:38:09;27.10;;;19.40;;
72205;SDS011;60111;48.286;7.812;2022-08-19T10:40:42;20.85;;;18.45;;
72205;SDS011;60111;48.286;7.812;2022-08-19T10:43:14;25.10;;;19.98;;
72205;SDS011;60111;48.286;7.812;2022-08-19T10:45:54;27.07;;;20.13;;
72205;SDS011;60111;48.286;7.812;2022-08-19T10:48:29;28.62;;;20.55;;
72205;SDS011;60111;48.286;7.812;2022-08-19T10:51:02;27.75;;;20.95;;
72205;SDS011;60111;48.286;7.812;2022-08-19T10:53:54;28.43;;;20.90;;
72205;SDS011;60111;48.286;7.812;2022-08-19T10:56:28;30.13;;;21.33;;
72205;SDS011;60111;48.286;7.812;2022-08-19T10:59:20;23.75;;;19.40;;
72205;SDS011;60111;48.286;7.812;2022-08-19T11:01:59;22.85;;;19.90;;
72205;SDS011;60111;48.286;7.812;2022-08-19T11:04:33;20.90;;;17.50;;
72205;SDS011;60111;48.286;7.812;2022-08-19T11:07:05;26.68;;;19.62;;
72205;SDS011;60111;48.286;7.812;2022-08-19T11:09:40;25.60;;;19.03;;
72205;SDS011;60111;48.286;7.812;2022-08-19T11:14:46;26.33;;;21.25;;
72205;SDS011;60111;48.286;7.812;2022-08-19T11:17:20;22.13;;;17.70;;
72205;SDS011;60111;48.286;7.812;2022-08-19T11:19:54;24.87;;;19.97;;
72205;SDS011;60111;48.286;7.812;2022-08-19T11:22:26;25.88;;;20.27;;
72205;SDS011;60111;48.286;7.812;2022-08-19T11:24:59;24.67;;;19.12;;
72205;SDS011;60111;48.286;7.812;2022-08-19T11:27:33;18.80;;;16.27;;
72205;SDS011;60111;48.286;7.812;2022-08-19T11:30:07;24.80;;;20.57;;
72205;SDS011;60111;48.286;7.812;2022-08-19T11:32:41;21.48;;;16.00;;
72205;SDS011;60111;48.286;7.812;2022-08-19T11:35:13;25.95;;;20.17;;
72205;SDS011;60111;48.286;7.812;2022-08-19T11:37:47;24.55;;;20.25;;
72205;SDS011;60111;48.286;7.812;2022-08-19T11:40:20;23.00;;;19.62;;
72205;SDS011;60111;48.286;7.812;2022-08-19T11:42:52;26.87;;;20.68;;
72205;SDS011;60111;48.286;7.812;2022-08-19T11:45:27;23.60;;;18.25;;
72205;SDS011;60111;48.286;7.812;2022-08-19T11:48:00;22.98;;;19.98;;
72205;SDS011;60111;48.286;7.812;2022-08-19T11:50:33;22.48;;;17.70;;
72205;SDS011;60111;48.286;7.812;2022-08-19T11:53:07;20.57;;;17.30;;
72205;SDS011;60111;48.286;7.812;2022-08-19T11:55:40;23.20;;;20.20;;
72205;SDS011;60111;48.286;7.812;2022-08-19T11:58:14;22.42;;;19.67;;
72205;SDS011;60111;48.286;7.812;2022-08-19T12:00:48;16.52;;;13.80;;
72205;SDS011;60111;48.286;7.812;2022-08-19T12:03:21;30.25;;;21.10;;
72205;SDS011;60111;48.286;7.812;2022-08-19T12:05:54;20.80;;;17.30;;
72205;SDS011;60111;48.286;7.812;2022-08-19T12:08:27;24.37;;;20.57;;
72205;SDS011;60111;48.286;7.812;2022-08-19T12:11:00;25.20;;;21.10;;
72205;SDS011;60111;48.286;7.812;2022-08-19T12:13:33;21.75;;;17.27;;
72205;SDS011;60111;48.286;7.812;2022-08-19T12:16:10;17.70;;;14.87;;
72205;SDS011;60111;48.286;7.812;2022-08-19T12:18:45;20.47;;;15.77;;
72205;SDS011;60111;48.286;7.812;2022-08-19T12:21:19;18.60;;;14.70;;
72205;SDS011;60111;48.286;7.812;2022-08-19T12:23:54;18.50;;;16.33;;
72205;SDS011;60111;48.286;7.812;2022-08-19T12:26:28;26.70;;;18.17;;
72205;SDS011;60111;48.286;7.812;2022-08-19T12:29:02;16.07;;;14.37;;
72205;SDS011;60111;48.286;7.812;2022-08-19T12:31:35;24.27;;;18.53;;
72205;SDS011;60111;48.286;7.812;2022-08-19T12:34:08;22.05;;;18.62;;
72205;SDS011;60111;48.286;7.812;2022-08-19T12:36:41;20.77;;;18.50;;
72205;SDS011;60111;48.286;7.812;2022-08-19T12:39:13;21.33;;;17.05;;
72205;SDS011;60111;48.286;7.812;2022-08-19T12:41:47;19.07;;;16.67;;
72205;SDS011;60111;48.286;7.812;2022-08-19T12:44:21;16.25;;;14.55;;
72205;SDS011;60111;48.286;7.812;2022-08-19T12:46:54;22.17;;;16.73;;
72205;SDS011;60111;48.286;7.812;2022-08-19T12:49:28;18.63;;;16.60;;
72205;SDS011;60111;48.286;7.812;2022-08-19T12:52:08;17.30;;;15.05;;
72205;SDS011;60111;48.286;7.812;2022-08-19T12:54:38;19.02;;;17.02;;
72205;SDS011;60111;48.286;7.812;2022-08-19T12:57:10;18.32;;;14.30;;
72205;SDS011;60111;48.286;7.812;2022-08-19T12:59:43;16.73;;;13.87;;
72205;SDS011;60111;48.286;7.812;2022-08-19T13:02:15;18.32;;;16.40;;
72205;SDS011;60111;48.286;7.812;2022-08-19T13:04:48;16.82;;;14.47;;
72205;SDS011;60111;48.286;7.812;2022-08-19T13:07:21;23.77;;;15.38;;
72205;SDS011;60111;48.286;7.812;2022-08-19T13:09:54;16.07;;;13.35;;
72205;SDS011;60111;48.286;7.812;2022-08-19T13:12:26;17.80;;;14.63;;
72205;SDS011;60111;48.286;7.812;2022-08-19T13:14:59;17.14;;;14.48;;
72205;SDS011;60111;48.286;7.812;2022-08-19T13:17:33;18.13;;;12.73;;
72205;SDS011;60111;48.286;7.812;2022-08-19T13:20:11;16.07;;;13.40;;
72205;SDS011;60111;48.286;7.812;2022-08-19T13:22:42;13.80;;;12.05;;
72205;SDS011;60111;48.286;7.812;2022-08-19T13:27:49;16.07;;;12.43;;
72205;SDS011;60111;48.286;7.812;2022-08-19T13:30:22;15.27;;;11.70;;
72205;SDS011;60111;48.286;7.812;2022-08-19T13:33:14;14.63;;;13.15;;
72205;SDS011;60111;48.286;7.812;2022-08-19T13:35:47;14.15;;;11.18;;
72205;SDS011;60111;48.286;7.812;2022-08-19T13:38:24;11.76;;;10.56;;
72205;SDS011;60111;48.286;7.812;2022-08-19T13:41:03;11.40;;;10.40;;
72205;SDS011;60111;48.286;7.812;2022-08-19T13:43:32;15.63;;;10.35;;
72205;SDS011;60111;48.286;7.812;2022-08-19T13:46:08;10.80;;;9.73;;
72205;SDS011;60111;48.286;7.812;2022-08-19T13:48:41;10.72;;;9.68;;
72205;SDS011;60111;48.286;7.812;2022-08-19T13:51:15;13.40;;;9.67;;
72205;SDS011;60111;48.286;7.812;2022-08-19T13:53:48;10.60;;;9.10;;
72205;SDS011;60111;48.286;7.812;2022-08-19T13:56:21;11.38;;;9.45;;
72205;SDS011;60111;48.286;7.812;2022-08-19T13:58:54;11.70;;;8.87;;
72205;SDS011;60111;48.286;7.812;2022-08-19T14:01:28;10.77;;;9.43;;
72205;SDS011;60111;48.286;7.812;2022-08-19T14:04:01;12.13;;;8.93;;
72205;SDS011;60111;48.286;7.812;2022-08-19T14:06:34;10.00;;;8.93;;
72205;SDS011;60111;48.286;7.812;2022-08-19T14:09:07;10.23;;;8.55;;
72205;SDS011;60111;48.286;7.812;2022-08-19T14:11:40;10.93;;;9.80;;
72205;SDS011;60111;48.286;7.812;2022-08-19T14:14:12;11.37;;;9.57;;
72205;SDS011;60111;48.286;7.812;2022-08-19T14:16:45;10.30;;;8.70;;
72205;SDS011;60111;48.286;7.812;2022-08-19T14:19:18;13.77;;;9.50;;
72205;SDS011;60111;48.286;7.812;2022-08-19T14:21:50;10.90;;;9.75;;
72205;SDS011;60111;48.286;7.812;2022-08-19T14:24:23;10.50;;;9.53;;
72205;SDS011;60111;48.286;7.812;2022-08-19T14:26:57;10.48;;;9.38;;
72205;SDS011;60111;48.286;7.812;2022-08-19T14:29:30;12.30;;;9.70;;
72205;SDS011;60111;48.286;7.812;2022-08-19T14:32:02;11.08;;;9.65;;
72205;SDS011;60111;48.286;7.812;2022-08-19T14:34:35;13.47;;;10.17;;
72205;SDS011;60111;48.286;7.812;2022-08-19T14:37:08;12.23;;;10.75;;
72205;SDS011;60111;48.286;7.812;2022-08-19T14:39:43;12.33;;;9.83;;
72205;SDS011;60111;48.286;7.812;2022-08-19T14:42:16;10.98;;;9.83;;
72205;SDS011;60111;48.286;7.812;2022-08-19T14:44:49;13.80;;;10.18;;
72205;SDS011;60111;48.286;7.812;2022-08-19T14:47:21;10.85;;;9.75;;
72205;SDS011;60111;48.286;7.812;2022-08-19T14:49:54;10.85;;;9.85;;
72205;SDS011;60111;48.286;7.812;2022-08-19T14:52:27;14.10;;;9.43;;
72205;SDS011;60111;48.286;7.812;2022-08-19T14:54:59;12.00;;;8.74;;
72205;SDS011;60111;48.286;7.812;2022-08-19T14:57:32;12.25;;;8.95;;
72205;SDS011;60111;48.286;7.812;2022-08-19T15:00:05;9.40;;;8.50;;
72205;SDS011;60111;48.286;7.812;2022-08-19T15:02:41;11.68;;;8.85;;
72205;SDS011;60111;48.286;7.812;2022-08-19T15:05:16;9.65;;;8.65;;
72205;SDS011;60111;48.286;7.812;2022-08-19T15:07:48;13.68;;;9.30;;
72205;SDS011;60111;48.286;7.812;2022-08-19T15:10:22;11.40;;;8.93;;
72205;SDS011;60111;48.286;7.812;2022-08-19T15:12:55;9.33;;;8.38;;
72205;SDS011;60111;48.286;7.812;2022-08-19T15:15:28;10.95;;;8.60;;
72205;SDS011;60111;48.286;7.812;2022-08-19T15:18:00;10.98;;;8.43;;
72205;SDS011;60111;48.286;7.812;2022-08-19T15:20:36;10.17;;;8.37;;
72205;SDS011;60111;48.286;7.812;2022-08-19T15:23:10;9.13;;;7.90;;
72205;SDS011;60111;48.286;7.812;2022-08-19T15:25:42;10.45;;;8.63;;